createdAt,value
2019-01-30T00:00:34.103Z,56.59
2019-01-30T00:01:42.295Z,56.69
2019-01-30T00:02:49.899Z,56.77
2019-01-30T00:03:57.824Z,56.82
2019-01-30T00:05:08.920Z,56.86
2019-01-30T00:06:16.528Z,56.85
2019-01-30T00:07:24.136Z,56.87
2019-01-30T00:08:31.913Z,56.90
2019-01-30T00:09:40.037Z,56.95
2019-01-30T00:10:47.845Z,57.01
2019-01-30T00:11:55.949Z,57.03
2019-01-30T00:13:04.389Z,57.07
2019-01-30T00:14:11.992Z,57.07
2019-01-30T00:15:19.771Z,57.06
2019-01-30T00:16:27.561Z,56.97
2019-01-30T00:17:35.285Z,56.99
2019-01-30T00:18:43.317Z,56.96
2019-01-30T00:19:51.434Z,56.90
2019-01-30T00:20:59.336Z,56.82
2019-01-30T00:22:07.182Z,56.75
2019-01-30T00:23:15.212Z,56.71
2019-01-30T00:24:23.034Z,56.65
2019-01-30T00:25:30.973Z,56.60
2019-01-30T00:26:39.338Z,56.56
2019-01-30T00:27:47.427Z,56.54
2019-01-30T00:28:55.080Z,56.62
2019-01-30T00:30:04.189Z,56.69
2019-01-30T00:31:12.552Z,56.77
2019-01-30T00:32:21.003Z,56.87
2019-01-30T00:33:28.597Z,57.00
2019-01-30T00:34:36.749Z,57.04
2019-01-30T00:35:44.580Z,57.09
2019-01-30T00:36:52.578Z,57.11
2019-01-30T00:38:00.473Z,57.16
2019-01-30T00:39:08.748Z,57.18
2019-01-30T00:40:22.123Z,57.23
2019-01-30T00:41:30.423Z,57.26
2019-01-30T00:42:38.176Z,57.28
2019-01-30T00:43:45.911Z,57.26
2019-01-30T00:44:53.641Z,57.28
2019-01-30T00:46:01.609Z,57.28
2019-01-30T00:47:15.755Z,57.28
2019-01-30T00:48:19.107Z,57.27
2019-01-30T00:49:26.797Z,57.27
2019-01-30T00:50:35.157Z,57.33
2019-01-30T00:51:43.041Z,57.36
2019-01-30T00:52:50.723Z,57.37
2019-01-30T00:53:58.631Z,57.39
2019-01-30T00:55:09.184Z,57.41
2019-01-30T00:56:16.963Z,57.42
2019-01-30T00:57:26.762Z,57.49
2019-01-30T00:58:34.649Z,57.54
2019-01-30T00:59:42.698Z,57.55
2019-01-30T01:00:50.867Z,57.60
2019-01-30T01:01:58.644Z,57.68
2019-01-30T01:03:06.415Z,57.84
2019-01-30T01:04:14.672Z,57.97
2019-01-30T01:05:22.740Z,58.06
2019-01-30T01:06:30.708Z,58.17
2019-01-30T01:07:38.697Z,58.27
2019-01-30T01:08:46.550Z,58.29
2019-01-30T01:09:54.274Z,58.34
2019-01-30T01:11:02.389Z,58.50
2019-01-30T01:12:10.464Z,58.55
2019-01-30T01:13:18.106Z,58.75
2019-01-30T01:14:26.161Z,58.84
2019-01-30T01:15:34.261Z,59.02
2019-01-30T01:16:42.881Z,59.10
2019-01-30T01:17:51.277Z,59.16
2019-01-30T01:18:59.235Z,59.36
2019-01-30T01:20:11.359Z,59.52
2019-01-30T01:21:19.138Z,59.54
2019-01-30T01:22:27.298Z,59.58
2019-01-30T01:23:35.435Z,59.56
2019-01-30T01:24:43.321Z,59.57
2019-01-30T01:25:51.819Z,59.65
2019-01-30T01:26:59.599Z,59.64
2019-01-30T01:28:07.977Z,59.69
2019-01-30T01:29:16.219Z,59.76
2019-01-30T01:30:29.439Z,59.85
2019-01-30T01:31:39.476Z,59.82
2019-01-30T01:32:47.662Z,59.78
2019-01-30T01:33:55.290Z,59.72
2019-01-30T01:35:03.291Z,59.68
2019-01-30T01:36:11.293Z,59.67
2019-01-30T01:37:18.950Z,59.70
2019-01-30T01:38:26.815Z,59.65
2019-01-30T01:39:34.582Z,59.69
2019-01-30T01:40:42.551Z,59.73
2019-01-30T01:41:50.100Z,59.73
2019-01-30T01:42:58.134Z,59.80
2019-01-30T01:44:06.184Z,59.80
2019-01-30T01:45:25.594Z,59.78
2019-01-30T01:46:33.708Z,59.72
2019-01-30T01:47:41.645Z,59.70
2019-01-30T01:48:49.530Z,59.71
2019-01-30T01:49:57.456Z,59.76
2019-01-30T01:51:05.506Z,59.77
2019-01-30T01:52:13.413Z,59.79
2019-01-30T01:53:21.419Z,59.79
2019-01-30T01:54:29.301Z,59.83
2019-01-30T01:55:37.563Z,59.86
2019-01-30T01:56:45.132Z,59.90
2019-01-30T01:57:53.489Z,59.92
2019-01-30T01:59:01.171Z,59.98
2019-01-30T02:00:34.954Z,59.96
2019-01-30T02:01:34.118Z,60.01
2019-01-30T02:02:42.260Z,60.10
2019-01-30T02:03:49.891Z,60.04
2019-01-30T02:04:58.072Z,59.99
2019-01-30T02:06:06.118Z,59.99
2019-01-30T02:07:14.246Z,60.06
2019-01-30T02:08:22.262Z,59.99
2019-01-30T02:09:30.263Z,59.94
2019-01-30T02:10:38.436Z,59.96
2019-01-30T02:11:46.391Z,59.95
2019-01-30T02:12:54.419Z,59.92
2019-01-30T02:14:02.487Z,59.94
2019-01-30T02:15:14.608Z,59.94
2019-01-30T02:16:22.758Z,59.96
2019-01-30T02:17:30.723Z,59.93
2019-01-30T02:18:38.497Z,59.89
2019-01-30T02:19:46.606Z,59.92
2019-01-30T02:20:54.676Z,59.96
2019-01-30T02:22:02.746Z,59.96
2019-01-30T02:23:10.640Z,59.94
2019-01-30T02:24:18.532Z,59.93
2019-01-30T02:25:26.376Z,59.94
2019-01-30T02:26:34.033Z,59.96
2019-01-30T02:27:42.635Z,60.00
2019-01-30T02:28:50.737Z,59.98
2019-01-30T02:29:58.904Z,60.01
2019-01-30T02:31:06.462Z,60.00
2019-01-30T02:32:15.245Z,59.98
2019-01-30T02:33:23.062Z,59.99
2019-01-30T02:34:31.025Z,60.03
2019-01-30T02:35:38.876Z,60.05
2019-01-30T02:36:59.342Z,60.04
2019-01-30T02:38:07.098Z,60.19
2019-01-30T02:39:14.806Z,60.11
2019-01-30T02:40:25.361Z,60.24
2019-01-30T02:41:33.766Z,60.38
2019-01-30T02:42:42.336Z,60.50
2019-01-30T02:43:50.308Z,60.60
2019-01-30T02:44:58.063Z,60.56
2019-01-30T02:46:05.824Z,60.52
2019-01-30T02:47:14.588Z,60.51
2019-01-30T02:48:22.673Z,60.58
2019-01-30T02:49:30.381Z,60.67
2019-01-30T02:50:38.496Z,60.69
2019-01-30T02:51:46.349Z,60.69
2019-01-30T02:52:54.532Z,60.66
2019-01-30T02:54:02.394Z,60.67
2019-01-30T02:55:13.258Z,60.61
2019-01-30T02:56:20.966Z,60.59
2019-01-30T02:57:28.592Z,60.63
2019-01-30T02:58:37.296Z,60.66
2019-01-30T02:59:45.392Z,60.73
2019-01-30T03:00:59.291Z,60.77
2019-01-30T03:02:04.725Z,60.79
2019-01-30T03:03:12.837Z,60.92
2019-01-30T03:04:20.753Z,60.95
2019-01-30T03:05:29.036Z,60.90
2019-01-30T03:06:37.202Z,60.87
2019-01-30T03:07:45.899Z,60.84
2019-01-30T03:08:54.451Z,60.78
2019-01-30T03:10:02.713Z,60.79
2019-01-30T03:11:10.904Z,60.75
2019-01-30T03:12:19.212Z,60.73
2019-01-30T03:13:27.542Z,60.68
2019-01-30T03:14:35.949Z,60.66
2019-01-30T03:15:44.128Z,60.65
2019-01-30T03:16:52.105Z,60.64
2019-01-30T03:18:00.009Z,60.62
2019-01-30T03:19:08.365Z,60.62
2019-01-30T03:20:26.031Z,60.63
2019-01-30T03:21:34.535Z,60.62
2019-01-30T03:22:42.331Z,60.60
2019-01-30T03:23:50.755Z,60.61
2019-01-30T03:24:58.869Z,60.63
2019-01-30T03:26:06.543Z,60.67
2019-01-30T03:27:14.465Z,60.68
2019-01-30T03:28:22.351Z,60.73
2019-01-30T03:29:30.198Z,60.77
2019-01-30T03:30:38.208Z,60.80
2019-01-30T03:31:45.999Z,60.83
2019-01-30T03:32:53.829Z,60.83
2019-01-30T03:34:01.744Z,60.82
2019-01-30T03:35:09.727Z,60.80
2019-01-30T03:36:17.283Z,60.75
2019-01-30T03:37:25.126Z,60.70
2019-01-30T03:38:33.036Z,60.65
2019-01-30T03:39:41.739Z,60.60
2019-01-30T03:40:49.875Z,60.58
2019-01-30T03:41:57.688Z,60.55
2019-01-30T03:43:05.495Z,60.57
2019-01-30T03:44:13.221Z,60.56
2019-01-30T03:45:24.061Z,60.61
2019-01-30T03:46:31.934Z,60.58
2019-01-30T03:47:39.481Z,60.56
2019-01-30T03:48:47.246Z,60.55
2019-01-30T03:49:55.054Z,60.52
2019-01-30T03:51:03.459Z,60.52
2019-01-30T03:52:11.794Z,60.54
2019-01-30T03:53:19.949Z,60.57
2019-01-30T03:54:27.903Z,60.56
2019-01-30T03:55:35.571Z,60.59
2019-01-30T03:56:44.273Z,60.58
2019-01-30T03:57:52.363Z,60.57
2019-01-30T03:59:00.353Z,60.58
2019-01-30T04:00:15.355Z,60.60
2019-01-30T04:01:26.693Z,60.56
2019-01-30T04:02:32.856Z,60.52
2019-01-30T04:03:40.888Z,60.47
2019-01-30T04:04:48.716Z,60.39
2019-01-30T04:05:56.856Z,60.34
2019-01-30T04:07:07.720Z,60.37
2019-01-30T04:08:15.602Z,60.37
2019-01-30T04:09:23.503Z,60.34
2019-01-30T04:10:31.788Z,60.38
2019-01-30T04:11:39.502Z,60.41
2019-01-30T04:12:47.556Z,60.43
2019-01-30T04:13:55.276Z,60.42
2019-01-30T04:15:03.726Z,60.45
2019-01-30T04:16:11.658Z,60.45
2019-01-30T04:17:19.362Z,60.48
2019-01-30T04:18:27.103Z,60.51
2019-01-30T04:19:35.131Z,60.59
2019-01-30T04:20:43.295Z,60.68
2019-01-30T04:21:51.254Z,60.89
2019-01-30T04:22:59.418Z,60.98
2019-01-30T04:24:07.306Z,61.07
2019-01-30T04:25:15.716Z,61.13
2019-01-30T04:26:23.973Z,61.18
2019-01-30T04:27:31.700Z,61.23
2019-01-30T04:28:39.441Z,61.23
2019-01-30T04:29:47.126Z,61.20
2019-01-30T04:30:55.629Z,61.23
2019-01-30T04:32:03.327Z,61.19
2019-01-30T04:33:11.303Z,61.18
2019-01-30T04:34:19.187Z,61.24
2019-01-30T04:35:27.393Z,61.21
2019-01-30T04:36:35.604Z,61.23
2019-01-30T04:37:43.525Z,61.28
2019-01-30T04:38:51.612Z,61.32
2019-01-30T04:39:59.640Z,61.28
2019-01-30T04:41:07.576Z,61.29
2019-01-30T04:42:15.488Z,61.26
2019-01-30T04:43:23.304Z,61.25
2019-01-30T04:44:31.026Z,61.29
2019-01-30T04:45:38.827Z,61.22
2019-01-30T04:46:47.004Z,61.23
2019-01-30T04:47:55.105Z,61.24
2019-01-30T04:49:03.141Z,61.30
2019-01-30T04:50:11.935Z,61.29
2019-01-30T04:51:20.103Z,61.29
2019-01-30T04:52:28.309Z,61.31
2019-01-30T04:53:36.772Z,61.30
2019-01-30T04:54:44.806Z,61.25
2019-01-30T04:55:52.812Z,61.24
2019-01-30T04:57:01.109Z,61.28
2019-01-30T04:58:08.860Z,61.29
2019-01-30T04:59:16.904Z,61.30
2019-01-30T05:00:27.482Z,61.31
2019-01-30T05:01:35.533Z,61.29
2019-01-30T05:02:43.862Z,61.23
2019-01-30T05:03:51.955Z,61.15
2019-01-30T05:05:00.227Z,61.14
2019-01-30T05:06:08.563Z,61.13
2019-01-30T05:07:16.755Z,61.11
2019-01-30T05:08:24.545Z,61.06
2019-01-30T05:09:32.608Z,61.02
2019-01-30T05:10:40.741Z,60.98
2019-01-30T05:11:48.958Z,61.00
2019-01-30T05:12:57.104Z,61.03
2019-01-30T05:14:05.284Z,61.05
2019-01-30T05:15:16.550Z,61.04
2019-01-30T05:16:24.719Z,61.01
2019-01-30T05:17:33.049Z,61.04
2019-01-30T05:18:41.064Z,61.08
2019-01-30T05:19:49.130Z,61.11
2019-01-30T05:20:57.161Z,61.16
2019-01-30T05:22:04.846Z,61.24
2019-01-30T05:23:13.856Z,61.32
2019-01-30T05:24:22.167Z,61.35
2019-01-30T05:25:30.411Z,61.42
2019-01-30T05:26:38.269Z,61.53
2019-01-30T05:27:47.800Z,61.56
2019-01-30T05:28:56.005Z,61.57
2019-01-30T05:30:06.146Z,61.66
2019-01-30T05:31:14.119Z,61.69
2019-01-30T05:32:22.093Z,61.86
2019-01-30T05:33:30.406Z,61.91
2019-01-30T05:34:38.562Z,61.98
2019-01-30T05:35:46.640Z,61.95
2019-01-30T05:36:54.447Z,61.92
2019-01-30T05:38:02.649Z,61.96
2019-01-30T05:39:10.434Z,61.97
2019-01-30T05:40:23.034Z,61.99
2019-01-30T05:41:30.876Z,62.01
2019-01-30T05:42:38.570Z,62.14
2019-01-30T05:43:46.403Z,62.14
2019-01-30T05:44:54.753Z,62.26
2019-01-30T05:46:02.599Z,62.33
2019-01-30T05:47:10.136Z,62.39
2019-01-30T05:48:18.471Z,62.45
2019-01-30T05:49:29.091Z,62.56
2019-01-30T05:50:35.944Z,62.76
2019-01-30T05:51:44.969Z,62.84
2019-01-30T05:52:52.951Z,62.98
2019-01-30T05:54:01.232Z,63.04
2019-01-30T05:55:12.664Z,63.03
2019-01-30T05:56:20.699Z,63.27
2019-01-30T05:57:28.687Z,63.57
2019-01-30T05:58:36.726Z,63.63
2019-01-30T05:59:44.625Z,63.79
2019-01-30T06:00:52.759Z,63.90
2019-01-30T06:02:11.505Z,63.95
2019-01-30T06:03:11.493Z,64.08
2019-01-30T06:04:19.293Z,64.18
2019-01-30T06:05:27.145Z,64.31
2019-01-30T06:06:35.432Z,64.38
2019-01-30T06:07:43.535Z,64.43
2019-01-30T06:08:51.442Z,64.46
2019-01-30T06:09:59.642Z,64.72
2019-01-30T06:11:07.716Z,64.69
2019-01-30T06:12:15.888Z,64.74
2019-01-30T06:13:24.691Z,64.76
2019-01-30T06:14:32.957Z,64.82
2019-01-30T06:15:41.617Z,64.87
2019-01-30T06:16:49.964Z,64.85
2019-01-30T06:17:58.389Z,65.07
2019-01-30T06:19:06.603Z,64.98
2019-01-30T06:20:18.893Z,65.11
2019-01-30T06:21:26.953Z,65.06
2019-01-30T06:22:35.127Z,65.18
2019-01-30T06:23:43.684Z,65.15
2019-01-30T06:24:51.901Z,65.35
2019-01-30T06:25:59.941Z,65.39
2019-01-30T06:27:08.361Z,65.40
2019-01-30T06:28:17.053Z,65.30
2019-01-30T06:29:25.490Z,65.25
2019-01-30T06:30:34.455Z,65.42
2019-01-30T06:31:42.885Z,65.41
2019-01-30T06:32:50.882Z,65.37
2019-01-30T06:34:00.535Z,65.34
2019-01-30T06:35:09.007Z,65.38
2019-01-30T06:36:16.883Z,65.41
2019-01-30T06:37:26.047Z,65.58
2019-01-30T06:38:35.117Z,65.58
2019-01-30T06:39:42.993Z,65.59
2019-01-30T06:40:51.226Z,65.63
2019-01-30T06:42:00.654Z,65.58
2019-01-30T06:43:09.102Z,65.58
2019-01-30T06:44:17.301Z,65.60
2019-01-30T06:45:25.500Z,65.57
2019-01-30T06:46:34.117Z,65.54
2019-01-30T06:47:42.606Z,65.69
2019-01-30T06:48:50.581Z,65.60
2019-01-30T06:49:59.103Z,65.51
2019-01-30T06:51:08.219Z,65.43
2019-01-30T06:52:16.972Z,65.42
2019-01-30T06:53:25.235Z,65.40
2019-01-30T06:54:33.097Z,65.33
2019-01-30T06:55:41.281Z,65.27
2019-01-30T06:56:49.326Z,65.27
2019-01-30T06:57:57.575Z,65.29
2019-01-30T06:59:05.837Z,65.27
2019-01-30T07:00:20.182Z,65.18
2019-01-30T07:01:28.164Z,65.15
2019-01-30T07:02:36.333Z,65.05
2019-01-30T07:03:44.530Z,65.00
2019-01-30T07:04:52.655Z,64.95
2019-01-30T07:06:00.539Z,64.92
2019-01-30T07:07:08.541Z,64.93
2019-01-30T07:08:17.181Z,64.91
2019-01-30T07:09:25.353Z,64.89
2019-01-30T07:10:33.392Z,64.91
2019-01-30T07:11:41.581Z,64.93
2019-01-30T07:12:49.731Z,64.89
2019-01-30T07:13:57.648Z,64.87
2019-01-30T07:15:07.266Z,64.83
2019-01-30T07:16:15.456Z,64.81
2019-01-30T07:17:23.782Z,64.78
2019-01-30T07:18:31.550Z,64.77
2019-01-30T07:19:39.626Z,64.74
2019-01-30T07:20:47.755Z,64.73
2019-01-30T07:21:56.147Z,64.70
2019-01-30T07:23:04.295Z,64.70
2019-01-30T07:24:12.519Z,64.72
2019-01-30T07:25:23.022Z,64.72
2019-01-30T07:26:31.401Z,64.74
2019-01-30T07:27:39.857Z,64.76
2019-01-30T07:28:48.693Z,64.84
2019-01-30T07:29:57.471Z,64.87
2019-01-30T07:31:06.447Z,64.88
2019-01-30T07:32:14.638Z,64.85
2019-01-30T07:33:23.214Z,64.84
2019-01-30T07:34:31.705Z,64.82
2019-01-30T07:35:39.868Z,64.80
2019-01-30T07:36:48.058Z,64.74
2019-01-30T07:37:58.620Z,64.71
2019-01-30T07:39:09.146Z,64.69
2019-01-30T07:40:17.907Z,64.65
2019-01-30T07:41:26.060Z,64.64
2019-01-30T07:42:34.657Z,64.65
2019-01-30T07:43:42.453Z,64.64
2019-01-30T07:44:51.218Z,64.58
2019-01-30T07:45:59.156Z,64.60
2019-01-30T07:47:07.227Z,64.59
2019-01-30T07:48:15.581Z,64.64
2019-01-30T07:49:24.048Z,64.66
2019-01-30T07:50:32.090Z,64.62
2019-01-30T07:51:40.172Z,64.63
2019-01-30T07:52:48.483Z,64.62
2019-01-30T07:53:56.331Z,64.52
2019-01-30T07:55:05.132Z,64.50
2019-01-30T07:56:13.455Z,64.51
2019-01-30T07:57:21.655Z,64.56
2019-01-30T07:58:29.580Z,64.62
2019-01-30T07:59:37.821Z,64.68
2019-01-30T08:00:46.107Z,64.78
2019-01-30T08:01:54.255Z,64.96
2019-01-30T08:03:02.389Z,65.05
2019-01-30T08:04:10.475Z,65.12
2019-01-30T08:05:18.767Z,65.17
2019-01-30T08:06:26.876Z,65.18
2019-01-30T08:07:34.860Z,65.39
2019-01-30T08:08:42.919Z,65.43
2019-01-30T08:09:51.067Z,65.58
2019-01-30T08:10:59.406Z,65.77
2019-01-30T08:12:07.687Z,65.70
2019-01-30T08:13:15.722Z,65.66
2019-01-30T08:14:24.376Z,65.76
2019-01-30T08:15:32.709Z,65.79
2019-01-30T08:16:41.184Z,65.84
2019-01-30T08:17:49.030Z,65.83
2019-01-30T08:18:57.097Z,65.78
2019-01-30T08:20:08.490Z,65.73
2019-01-30T08:21:16.895Z,65.69
2019-01-30T08:22:24.993Z,65.65
2019-01-30T08:23:33.753Z,65.63
2019-01-30T08:24:41.740Z,65.52
2019-01-30T08:25:49.976Z,65.52
2019-01-30T08:26:58.393Z,65.51
2019-01-30T08:28:08.452Z,65.50
2019-01-30T08:29:18.058Z,65.53
2019-01-30T08:30:30.868Z,65.61
2019-01-30T08:31:38.601Z,65.65
2019-01-30T08:32:47.096Z,65.68
2019-01-30T08:33:55.137Z,65.83
2019-01-30T08:35:03.073Z,65.87
2019-01-30T08:36:11.319Z,65.95
2019-01-30T08:37:20.239Z,66.17
2019-01-30T08:38:28.689Z,66.35
2019-01-30T08:39:36.800Z,66.32
2019-01-30T08:40:44.629Z,66.39
2019-01-30T08:41:52.957Z,66.45
2019-01-30T08:43:01.193Z,66.59
2019-01-30T08:44:09.469Z,66.49
2019-01-30T08:45:21.433Z,66.53
2019-01-30T08:46:30.477Z,66.53
2019-01-30T08:47:38.444Z,66.64
2019-01-30T08:48:46.559Z,66.59
2019-01-30T08:49:54.464Z,66.60
2019-01-30T08:51:02.533Z,66.67
2019-01-30T08:52:10.098Z,66.69
2019-01-30T08:53:17.955Z,66.66
2019-01-30T08:54:26.207Z,66.67
2019-01-30T08:55:34.337Z,66.62
2019-01-30T08:56:52.513Z,66.56
2019-01-30T08:57:52.762Z,66.41
2019-01-30T08:59:01.111Z,66.25
2019-01-30T09:00:16.372Z,66.11
2019-01-30T09:01:25.545Z,66.00
2019-01-30T09:02:33.985Z,65.92
2019-01-30T09:03:41.995Z,65.88
2019-01-30T09:04:50.045Z,65.86
2019-01-30T09:05:57.931Z,65.84
2019-01-30T09:07:06.049Z,65.85
2019-01-30T09:08:16.004Z,65.80
2019-01-30T09:09:23.853Z,65.73
2019-01-30T09:10:31.785Z,65.65
2019-01-30T09:11:39.660Z,65.61
2019-01-30T09:12:48.184Z,65.53
2019-01-30T09:13:56.545Z,65.52
2019-01-30T09:15:06.394Z,65.49
2019-01-30T09:16:14.368Z,65.52
2019-01-30T09:17:22.250Z,65.50
2019-01-30T09:18:30.426Z,65.50
2019-01-30T09:19:38.564Z,65.48
2019-01-30T09:20:46.585Z,65.44
2019-01-30T09:21:54.889Z,65.38
2019-01-30T09:23:02.727Z,65.27
2019-01-30T09:24:10.733Z,65.19
2019-01-30T09:25:27.972Z,65.07
2019-01-30T09:26:35.765Z,65.02
2019-01-30T09:27:43.651Z,65.00
2019-01-30T09:28:51.760Z,65.00
2019-01-30T09:30:01.275Z,64.94
2019-01-30T09:31:09.271Z,64.91
2019-01-30T09:32:19.014Z,64.89
2019-01-30T09:33:27.099Z,64.89
2019-01-30T09:34:35.094Z,64.95
2019-01-30T09:35:43.174Z,64.99
2019-01-30T09:36:51.276Z,65.03
2019-01-30T09:37:59.110Z,65.00
2019-01-30T09:39:08.978Z,65.02
2019-01-30T09:40:19.794Z,65.02
2019-01-30T09:41:27.906Z,65.01
2019-01-30T09:42:35.995Z,64.95
2019-01-30T09:43:43.664Z,64.96
2019-01-30T09:44:52.055Z,64.90
2019-01-30T09:46:00.155Z,64.86
2019-01-30T09:47:08.329Z,64.81
2019-01-30T09:48:16.682Z,64.76
2019-01-30T09:49:25.064Z,64.69
2019-01-30T09:50:34.319Z,64.65
2019-01-30T09:51:42.418Z,64.62
2019-01-30T09:52:52.320Z,64.64
2019-01-30T09:54:00.485Z,64.59
2019-01-30T09:55:12.334Z,64.56
2019-01-30T09:56:20.511Z,64.50
2019-01-30T09:57:28.701Z,64.48
2019-01-30T09:58:37.151Z,64.43
2019-01-30T09:59:44.904Z,64.38
2019-01-30T10:00:53.043Z,64.25
2019-01-30T10:02:00.973Z,64.05
2019-01-30T10:03:09.365Z,63.75
2019-01-30T10:04:19.541Z,63.38
2019-01-30T10:05:27.971Z,62.95
2019-01-30T10:06:36.736Z,62.51
2019-01-30T10:07:44.612Z,62.02
2019-01-30T10:08:52.687Z,61.60
2019-01-30T10:10:00.582Z,61.06
2019-01-30T10:11:09.962Z,60.40
2019-01-30T10:12:18.400Z,59.82
2019-01-30T10:13:26.185Z,59.44
2019-01-30T10:14:35.182Z,59.23
2019-01-30T10:15:45.737Z,59.31
2019-01-30T10:16:54.086Z,59.45
2019-01-30T10:18:02.218Z,59.57
2019-01-30T10:19:10.333Z,59.60
2019-01-30T10:20:22.273Z,59.62
2019-01-30T10:21:30.553Z,59.71
2019-01-30T10:22:38.999Z,59.81
2019-01-30T10:23:46.812Z,59.91
2019-01-30T10:24:54.580Z,59.94
2019-01-30T10:26:02.720Z,60.14
2019-01-30T10:27:10.940Z,60.31
2019-01-30T10:28:19.471Z,60.45
2019-01-30T10:29:27.599Z,60.45
2019-01-30T10:30:42.321Z,60.35
2019-01-30T10:31:50.025Z,60.66
2019-01-30T10:32:58.447Z,60.80
2019-01-30T10:34:07.243Z,60.85
2019-01-30T10:35:15.209Z,60.95
2019-01-30T10:36:23.762Z,61.12
2019-01-30T10:37:31.442Z,61.16
2019-01-30T10:38:39.366Z,61.44
2019-01-30T10:39:47.293Z,61.56
2019-01-30T10:40:55.034Z,61.63
2019-01-30T10:42:03.463Z,61.80
2019-01-30T10:43:11.447Z,61.77
2019-01-30T10:44:19.626Z,61.71
2019-01-30T10:45:27.561Z,61.85
2019-01-30T10:46:35.534Z,61.91
2019-01-30T10:47:43.318Z,61.88
2019-01-30T10:48:51.108Z,61.78
2019-01-30T10:49:58.997Z,61.59
2019-01-30T10:51:07.473Z,61.40
2019-01-30T10:52:15.947Z,61.25
2019-01-30T10:53:24.387Z,61.00
2019-01-30T10:54:32.244Z,60.86
2019-01-30T10:55:40.601Z,60.83
2019-01-30T10:56:49.084Z,60.84
2019-01-30T10:57:59.360Z,61.00
2019-01-30T10:59:07.119Z,61.14
2019-01-30T11:00:30.704Z,61.21
2019-01-30T11:01:38.701Z,61.25
2019-01-30T11:02:46.632Z,61.19
2019-01-30T11:03:57.507Z,61.21
2019-01-30T11:05:05.634Z,61.21
2019-01-30T11:06:13.580Z,61.26
2019-01-30T11:07:21.428Z,61.31
2019-01-30T11:08:29.751Z,61.35
2019-01-30T11:09:38.699Z,61.52
2019-01-30T11:10:46.937Z,61.68
2019-01-30T11:11:54.663Z,61.71
2019-01-30T11:13:02.505Z,61.68
2019-01-30T11:14:10.723Z,61.67
2019-01-30T11:15:22.318Z,61.67
2019-01-30T11:16:31.131Z,61.63
2019-01-30T11:17:39.023Z,61.51
2019-01-30T11:18:47.067Z,61.37
2019-01-30T11:19:54.784Z,61.30
2019-01-30T11:21:03.110Z,61.25
2019-01-30T11:22:13.194Z,61.19
2019-01-30T11:23:21.839Z,61.13
2019-01-30T11:24:29.929Z,61.17
2019-01-30T11:25:41.880Z,61.26
2019-01-30T11:26:49.636Z,61.33
2019-01-30T11:27:57.703Z,61.41
2019-01-30T11:29:06.557Z,61.37
2019-01-30T11:30:18.778Z,61.23
2019-01-30T11:31:28.606Z,61.08
2019-01-30T11:32:37.231Z,60.87
2019-01-30T11:33:47.206Z,60.75
2019-01-30T11:34:56.150Z,60.73
2019-01-30T11:36:04.923Z,60.72
2019-01-30T11:37:14.112Z,60.77
2019-01-30T11:38:23.522Z,60.82
2019-01-30T11:39:32.574Z,60.82
2019-01-30T11:40:42.400Z,60.77
2019-01-30T11:41:52.066Z,60.76
2019-01-30T11:43:00.706Z,60.83
2019-01-30T11:44:08.795Z,60.80
2019-01-30T11:45:27.021Z,60.80
2019-01-30T11:46:36.440Z,60.77
2019-01-30T11:47:45.409Z,60.75
2019-01-30T11:48:56.535Z,60.73
2019-01-30T11:50:05.131Z,60.88
2019-01-30T11:51:15.450Z,61.00
2019-01-30T11:52:23.502Z,61.11
2019-01-30T11:53:31.838Z,61.24
2019-01-30T11:54:39.686Z,61.35
2019-01-30T11:55:48.082Z,61.49
2019-01-30T11:56:56.376Z,61.62
2019-01-30T11:58:04.732Z,61.74
2019-01-30T11:59:12.838Z,61.87
2019-01-30T12:00:29.127Z,61.99
2019-01-30T12:01:38.193Z,62.05
2019-01-30T12:02:47.941Z,62.08
2019-01-30T12:03:56.226Z,62.04
2019-01-30T12:05:04.393Z,62.00
2019-01-30T12:06:12.538Z,62.00
2019-01-30T12:07:20.984Z,61.95
2019-01-30T12:08:29.949Z,61.88
2019-01-30T12:09:38.150Z,61.88
2019-01-30T12:10:46.390Z,61.83
2019-01-30T12:11:54.554Z,61.80
2019-01-30T12:13:02.218Z,61.68
2019-01-30T12:14:10.231Z,61.62
2019-01-30T12:15:26.874Z,61.56
2019-01-30T12:16:36.594Z,61.54
2019-01-30T12:17:44.752Z,61.51
2019-01-30T12:18:52.841Z,61.42
2019-01-30T12:20:00.988Z,61.28
2019-01-30T12:21:09.114Z,61.16
2019-01-30T12:22:16.783Z,61.02
2019-01-30T12:23:24.644Z,60.87
2019-01-30T12:24:33.395Z,60.77
2019-01-30T12:25:41.643Z,60.67
2019-01-30T12:26:51.770Z,60.63
2019-01-30T12:28:01.229Z,60.51
2019-01-30T12:29:10.032Z,60.29
2019-01-30T12:30:27.676Z,60.26
2019-01-30T12:31:35.986Z,60.19
2019-01-30T12:32:44.820Z,60.12
2019-01-30T12:33:53.447Z,60.25
2019-01-30T12:35:02.106Z,60.32
2019-01-30T12:36:10.701Z,60.27
2019-01-30T12:37:19.441Z,60.15
2019-01-30T12:38:28.053Z,60.07
2019-01-30T12:39:35.824Z,60.00
2019-01-30T12:40:44.356Z,59.96
2019-01-30T12:41:52.412Z,60.02
2019-01-30T12:43:00.889Z,60.01
2019-01-30T12:44:09.405Z,60.00
2019-01-30T12:45:35.420Z,60.02
2019-01-30T12:46:44.519Z,60.00
2019-01-30T12:47:53.170Z,59.97
2019-01-30T12:49:01.612Z,59.92
2019-01-30T12:50:09.769Z,59.88
2019-01-30T12:51:17.862Z,59.69
2019-01-30T12:52:25.712Z,59.50
2019-01-30T12:53:34.871Z,59.32
2019-01-30T12:54:42.887Z,59.15
2019-01-30T12:55:51.470Z,59.07
2019-01-30T12:56:59.605Z,59.07
2019-01-30T12:58:07.487Z,59.05
2019-01-30T12:59:15.158Z,59.03
2019-01-30T13:00:30.776Z,58.96
2019-01-30T13:01:38.469Z,58.96
2019-01-30T13:02:46.270Z,59.06
2019-01-30T13:03:54.509Z,59.10
2019-01-30T13:05:02.402Z,59.11
2019-01-30T13:06:11.214Z,59.19
2019-01-30T13:07:19.111Z,59.24
2019-01-30T13:08:27.229Z,59.28
2019-01-30T13:09:35.397Z,59.23
2019-01-30T13:10:43.396Z,59.16
2019-01-30T13:11:51.691Z,59.15
2019-01-30T13:12:59.890Z,59.11
2019-01-30T13:14:07.427Z,59.03
2019-01-30T13:15:22.127Z,58.90
2019-01-30T13:16:30.899Z,58.77
2019-01-30T13:17:38.831Z,58.61
2019-01-30T13:18:47.282Z,58.47
2019-01-30T13:19:55.441Z,58.42
2019-01-30T13:21:03.770Z,58.28
2019-01-30T13:22:12.053Z,58.17
2019-01-30T13:23:19.718Z,58.13
2019-01-30T13:24:28.054Z,58.20
2019-01-30T13:25:36.391Z,58.28
2019-01-30T13:26:44.332Z,58.40
2019-01-30T13:27:52.228Z,58.63
2019-01-30T13:29:00.576Z,58.82
2019-01-30T13:30:16.147Z,58.99
2019-01-30T13:31:23.934Z,59.17
2019-01-30T13:32:32.187Z,59.33
2019-01-30T13:33:40.498Z,59.50
2019-01-30T13:34:49.195Z,59.54
2019-01-30T13:35:57.196Z,59.56
2019-01-30T13:37:05.123Z,59.63
2019-01-30T13:38:13.282Z,59.70
2019-01-30T13:39:21.076Z,59.77
2019-01-30T13:40:32.842Z,59.81
2019-01-30T13:41:40.581Z,59.88
2019-01-30T13:42:49.089Z,59.89
2019-01-30T13:43:57.249Z,59.92
2019-01-30T13:45:08.507Z,59.89
2019-01-30T13:46:16.499Z,59.92
2019-01-30T13:47:24.907Z,59.95
2019-01-30T13:48:33.561Z,60.03
2019-01-30T13:49:41.443Z,60.08
2019-01-30T13:50:49.409Z,60.14
2019-01-30T13:51:57.964Z,60.17
2019-01-30T13:53:05.967Z,60.23
2019-01-30T13:54:13.900Z,60.25
2019-01-30T13:55:22.198Z,60.29
2019-01-30T13:56:30.496Z,60.29
2019-01-30T13:57:38.709Z,60.31
2019-01-30T13:58:46.585Z,60.34
2019-01-30T13:59:55.530Z,60.34
2019-01-30T14:01:03.527Z,60.33
2019-01-30T14:02:11.690Z,60.30
2019-01-30T14:03:19.418Z,60.21
2019-01-30T14:04:27.435Z,60.13
2019-01-30T14:05:35.883Z,60.06
2019-01-30T14:06:44.213Z,60.07
2019-01-30T14:07:52.391Z,60.07
2019-01-30T14:09:00.267Z,60.07
2019-01-30T14:10:11.632Z,60.12
2019-01-30T14:11:19.538Z,60.18
2019-01-30T14:12:27.663Z,60.20
2019-01-30T14:13:35.594Z,60.27
2019-01-30T14:14:44.272Z,60.32
2019-01-30T14:15:52.732Z,60.32
2019-01-30T14:17:00.982Z,60.18
2019-01-30T14:18:10.123Z,60.17
2019-01-30T14:19:20.557Z,60.12
2019-01-30T14:20:30.138Z,60.06
2019-01-30T14:21:38.812Z,59.96
2019-01-30T14:22:46.989Z,59.86
2019-01-30T14:23:55.193Z,59.80
2019-01-30T14:25:03.408Z,59.76
2019-01-30T14:26:11.490Z,59.69
2019-01-30T14:27:19.267Z,59.63
2019-01-30T14:28:27.402Z,59.55
2019-01-30T14:29:35.701Z,59.44
2019-01-30T14:30:44.435Z,59.41
2019-01-30T14:31:52.894Z,59.35
2019-01-30T14:33:01.640Z,59.33
2019-01-30T14:34:09.945Z,59.35
2019-01-30T14:35:18.111Z,59.32
2019-01-30T14:36:26.764Z,59.30
2019-01-30T14:37:34.956Z,59.28
2019-01-30T14:38:43.253Z,59.28
2019-01-30T14:39:51.893Z,59.22
2019-01-30T14:41:00.063Z,59.13
2019-01-30T14:42:08.762Z,58.99
2019-01-30T14:43:17.562Z,58.89